createdAt,value
2019-06-20T00:00:39.653Z,22.30
2019-06-20T00:03:09.988Z,17.60
2019-06-20T00:05:40.280Z,17.40
2019-06-20T00:08:10.780Z,21.60
2019-06-20T00:10:41.085Z,23.85
2019-06-20T00:13:11.342Z,21.27
2019-06-20T00:15:41.535Z,20.25
2019-06-20T00:18:11.902Z,26.87
2019-06-20T00:20:45.499Z,24.23
2019-06-20T00:23:15.751Z,22.10
2019-06-20T00:25:46.004Z,21.23
2019-06-20T00:28:16.340Z,23.38
2019-06-20T00:30:46.513Z,22.20
2019-06-20T00:33:16.749Z,22.17
2019-06-20T00:35:47.025Z,23.80
2019-06-20T00:38:17.284Z,19.75
2019-06-20T00:40:47.473Z,23.73
2019-06-20T00:43:18.437Z,21.35
2019-06-20T00:45:48.803Z,24.12
2019-06-20T00:48:19.202Z,21.15
2019-06-20T00:50:49.413Z,21.45
2019-06-20T00:53:19.736Z,25.08
2019-06-20T00:55:50.005Z,21.82
2019-06-20T00:58:20.372Z,20.25
2019-06-20T01:00:50.607Z,23.30
2019-06-20T01:03:20.865Z,21.97
2019-06-20T01:05:51.122Z,21.55
2019-06-20T01:08:21.447Z,24.27
2019-06-20T01:10:51.652Z,24.27
2019-06-20T01:13:33.038Z,17.98
2019-06-20T01:15:54.846Z,20.30
2019-06-20T01:18:25.237Z,21.15
2019-06-20T01:20:55.508Z,18.37
2019-06-20T01:23:25.753Z,18.73
2019-06-20T01:25:56.020Z,20.15
2019-06-20T01:28:26.341Z,20.32
2019-06-20T01:30:56.599Z,18.92
2019-06-20T01:33:27.756Z,19.25
2019-06-20T01:35:57.936Z,19.10
2019-06-20T01:38:28.264Z,19.55
2019-06-20T01:40:58.544Z,23.45
2019-06-20T01:43:28.798Z,17.67
2019-06-20T01:45:59.053Z,18.15
2019-06-20T01:48:29.381Z,26.50
2019-06-20T01:50:59.659Z,18.57
2019-06-20T01:53:29.966Z,16.90
2019-06-20T01:56:00.173Z,18.90
2019-06-20T01:58:30.481Z,16.10
2019-06-20T02:01:00.837Z,15.88
2019-06-20T02:03:31.189Z,15.95
2019-06-20T02:06:01.441Z,16.85
2019-06-20T02:08:31.785Z,21.02
2019-06-20T02:11:01.978Z,16.65
2019-06-20T02:13:32.293Z,15.68
2019-06-20T02:16:02.515Z,16.27
2019-06-20T02:18:32.896Z,16.57
2019-06-20T02:21:03.171Z,17.20
2019-06-20T02:23:33.410Z,13.05
2019-06-20T02:26:03.680Z,16.48
2019-06-20T02:28:35.032Z,14.45
2019-06-20T02:31:05.322Z,19.55
2019-06-20T02:33:35.630Z,16.17
2019-06-20T02:36:05.982Z,16.77
2019-06-20T02:38:36.257Z,19.77
2019-06-20T02:41:06.444Z,15.53
2019-06-20T02:43:36.748Z,13.45
2019-06-20T02:46:06.956Z,19.02
2019-06-20T02:48:37.242Z,20.97
2019-06-20T02:51:07.493Z,13.78
2019-06-20T02:53:37.823Z,16.57
2019-06-20T02:56:08.078Z,17.98
2019-06-20T02:58:38.329Z,14.93
2019-06-20T03:01:09.518Z,18.50
2019-06-20T03:03:39.964Z,14.38
2019-06-20T03:06:10.244Z,18.35
2019-06-20T03:08:40.511Z,18.30
2019-06-20T03:11:10.779Z,19.77
2019-06-20T03:13:41.171Z,16.40
2019-06-20T03:16:11.353Z,19.40
2019-06-20T03:18:41.636Z,17.70
2019-06-20T03:21:11.891Z,16.87
2019-06-20T03:23:42.224Z,18.48
2019-06-20T03:26:12.412Z,13.70
2019-06-20T03:28:42.746Z,17.77
2019-06-20T03:31:13.040Z,16.90
2019-06-20T03:33:43.361Z,13.43
2019-06-20T03:36:13.580Z,20.32
2019-06-20T03:38:43.838Z,17.62
2019-06-20T03:41:14.114Z,21.25
2019-06-20T03:43:44.443Z,18.40
2019-06-20T03:46:14.719Z,25.08
2019-06-20T03:48:46.618Z,15.55
2019-06-20T03:51:16.831Z,21.77
2019-06-20T03:53:47.212Z,19.15
2019-06-20T03:56:19.012Z,18.73
2019-06-20T03:58:49.267Z,16.48
2019-06-20T04:01:19.557Z,20.50
2019-06-20T04:03:49.885Z,20.92
2019-06-20T04:06:20.133Z,18.23
2019-06-20T04:08:50.498Z,17.67
2019-06-20T04:11:20.590Z,22.07
2019-06-20T04:13:51.053Z,18.73
2019-06-20T04:16:21.309Z,23.67
2019-06-20T04:18:51.646Z,21.80
2019-06-20T04:21:21.898Z,20.95
2019-06-20T04:23:52.236Z,27.37
2019-06-20T04:26:22.499Z,23.15
2019-06-20T04:28:52.818Z,23.77
2019-06-20T04:31:23.005Z,26.00
2019-06-20T04:33:53.344Z,23.83
2019-06-20T04:36:23.624Z,23.25
2019-06-20T04:38:53.872Z,22.87
2019-06-20T04:41:24.077Z,29.27
2019-06-20T04:43:54.399Z,29.20
2019-06-20T04:46:26.240Z,28.55
2019-06-20T04:48:56.601Z,28.62
2019-06-20T04:51:26.810Z,28.95
2019-06-20T04:53:57.137Z,31.10
2019-06-20T04:56:27.449Z,31.50
2019-06-20T04:58:57.644Z,38.05
2019-06-20T05:01:27.843Z,32.33
2019-06-20T05:03:58.112Z,30.77
2019-06-20T05:06:28.383Z,36.70
2019-06-20T05:08:58.708Z,36.08
2019-06-20T05:11:28.961Z,31.68
2019-06-20T05:13:59.315Z,31.80
2019-06-20T05:16:29.587Z,27.22
2019-06-20T05:18:59.939Z,29.70
2019-06-20T05:21:30.190Z,24.50
2019-06-20T05:24:00.548Z,21.52
2019-06-20T05:26:30.854Z,18.73
2019-06-20T05:29:01.171Z,20.65
2019-06-20T05:31:31.434Z,23.10
2019-06-20T05:34:01.752Z,22.05
2019-06-20T05:36:32.023Z,19.65
2019-06-20T05:39:02.388Z,23.00
2019-06-20T05:41:32.843Z,25.32
2019-06-20T05:44:03.174Z,25.77
2019-06-20T05:46:33.362Z,23.32
2019-06-20T05:49:03.693Z,23.35
2019-06-20T05:51:33.980Z,21.52
2019-06-20T05:54:04.505Z,21.52
2019-06-20T05:56:34.794Z,21.50
2019-06-20T05:59:06.700Z,20.25
2019-06-20T06:01:36.972Z,20.75
2019-06-20T06:04:07.234Z,22.35
2019-06-20T06:06:37.436Z,21.00
2019-06-20T06:09:08.077Z,18.10
2019-06-20T06:11:39.343Z,19.17
2019-06-20T06:14:11.183Z,20.15
2019-06-20T06:16:44.206Z,22.25
2019-06-20T06:19:14.256Z,25.48
2019-06-20T06:21:44.509Z,18.10
2019-06-20T06:24:14.781Z,16.65
2019-06-20T06:26:45.042Z,19.80
2019-06-20T06:29:15.375Z,22.87
2019-06-20T06:31:45.569Z,17.02
2019-06-20T06:34:15.903Z,14.30
2019-06-20T06:36:46.089Z,20.95
2019-06-20T06:39:16.422Z,18.67
2019-06-20T06:41:46.702Z,16.45
2019-06-20T06:44:16.947Z,20.75
2019-06-20T06:46:53.489Z,20.88
2019-06-20T06:49:19.138Z,23.67
2019-06-20T06:51:49.356Z,25.75
2019-06-20T06:54:19.694Z,23.90
2019-06-20T06:56:49.893Z,20.48
2019-06-20T06:59:20.226Z,20.70
2019-06-20T07:01:50.414Z,21.30
2019-06-20T07:04:20.870Z,18.05
2019-06-20T07:06:51.170Z,21.42
2019-06-20T07:09:22.707Z,18.20
2019-06-20T07:11:52.954Z,21.73
2019-06-20T07:14:23.241Z,23.15
2019-06-20T07:17:00.213Z,20.52
2019-06-20T07:19:25.708Z,20.12
2019-06-20T07:21:57.256Z,19.30
2019-06-20T07:24:27.565Z,19.73
2019-06-20T07:26:57.831Z,18.65
2019-06-20T07:29:28.168Z,17.35
2019-06-20T07:31:58.434Z,20.90
2019-06-20T07:34:28.748Z,19.98
2019-06-20T07:36:59.007Z,21.55
2019-06-20T07:39:29.335Z,19.60
2019-06-20T07:41:59.597Z,18.73
2019-06-20T07:44:29.917Z,14.90
2019-06-20T07:47:16.246Z,17.85
2019-06-20T07:49:32.271Z,16.65
2019-06-20T07:52:02.546Z,20.82
2019-06-20T07:54:32.859Z,16.75
2019-06-20T07:57:04.150Z,17.75
2019-06-20T07:59:37.275Z,15.72
2019-06-20T08:02:07.529Z,17.10
2019-06-20T08:04:37.893Z,18.02
2019-06-20T08:07:08.157Z,17.00
2019-06-20T08:09:44.731Z,17.27
2019-06-20T08:12:10.383Z,20.97
2019-06-20T08:14:41.783Z,17.05
2019-06-20T08:17:11.951Z,23.30
2019-06-20T08:19:42.258Z,19.95
2019-06-20T08:22:12.508Z,19.65
2019-06-20T08:24:42.760Z,24.02
2019-06-20T08:27:15.042Z,19.40
2019-06-20T08:29:45.362Z,20.90
2019-06-20T08:32:15.557Z,20.02
2019-06-20T08:34:45.896Z,17.20
2019-06-20T08:37:16.180Z,17.02
2019-06-20T08:39:46.450Z,13.53
2019-06-20T08:42:16.637Z,19.95
2019-06-20T08:44:46.897Z,20.43
2019-06-20T08:47:17.158Z,20.90
2019-06-20T08:49:47.500Z,20.00
2019-06-20T08:52:17.673Z,20.17
2019-06-20T08:54:47.994Z,17.07
2019-06-20T08:57:18.269Z,22.60
2019-06-20T08:59:48.529Z,18.35
2019-06-20T09:02:18.654Z,19.25
2019-06-20T09:04:48.981Z,17.85
2019-06-20T09:07:19.252Z,22.17
2019-06-20T09:09:49.520Z,16.45
2019-06-20T09:12:19.784Z,15.55
2019-06-20T09:14:50.136Z,18.00
2019-06-20T09:17:20.388Z,16.93
2019-06-20T09:19:51.711Z,12.85
2019-06-20T09:22:22.454Z,16.53
2019-06-20T09:24:53.688Z,15.55
2019-06-20T09:27:24.589Z,15.97
2019-06-20T09:29:56.182Z,14.60
2019-06-20T09:32:26.564Z,14.55
2019-06-20T09:34:58.703Z,16.30
2019-06-20T09:37:29.012Z,18.48
2019-06-20T09:39:59.292Z,15.95
2019-06-20T09:42:29.488Z,17.50
2019-06-20T09:44:59.804Z,8.85
2019-06-20T09:47:30.068Z,11.90
2019-06-20T09:50:00.413Z,10.45
2019-06-20T09:52:30.604Z,10.08
2019-06-20T09:55:00.951Z,12.73
2019-06-20T09:57:31.200Z,7.35
2019-06-20T10:00:09.609Z,7.75
2019-06-20T10:02:33.347Z,9.40
2019-06-20T10:05:05.673Z,9.25
2019-06-20T10:07:35.935Z,11.78
2019-06-20T10:10:11.827Z,6.33
2019-06-20T10:12:42.415Z,12.23
2019-06-20T10:15:22.456Z,4.40
2019-06-20T10:17:54.512Z,10.10
2019-06-20T10:20:25.447Z,11.57
2019-06-20T10:22:55.635Z,8.78
2019-06-20T10:25:26.163Z,9.20
2019-06-20T10:27:57.705Z,5.08
2019-06-20T10:30:28.589Z,6.55
2019-06-20T10:32:58.828Z,8.73
2019-06-20T10:35:29.184Z,7.95
2019-06-20T10:37:59.425Z,8.08
2019-06-20T10:40:29.851Z,6.25
2019-06-20T10:43:00.110Z,5.60
2019-06-20T10:45:30.540Z,4.25
2019-06-20T10:48:00.840Z,9.30
2019-06-20T10:50:31.188Z,8.45
2019-06-20T10:53:01.480Z,8.35
2019-06-20T10:55:31.714Z,9.05
2019-06-20T10:58:03.415Z,10.38
2019-06-20T11:00:33.752Z,6.85
2019-06-20T11:03:04.012Z,9.45
2019-06-20T11:05:34.249Z,7.87
2019-06-20T11:08:04.609Z,6.65
2019-06-20T11:10:35.032Z,8.25
2019-06-20T11:13:05.268Z,8.15
2019-06-20T11:15:35.636Z,11.40
2019-06-20T11:18:05.821Z,9.10
2019-06-20T11:20:36.161Z,11.03
2019-06-20T11:23:06.365Z,10.85
2019-06-20T11:25:37.197Z,13.22
2019-06-20T11:28:08.474Z,10.50
2019-06-20T11:30:52.659Z,10.35
2019-06-20T11:33:10.913Z,7.05
2019-06-20T11:35:41.826Z,11.45
2019-06-20T11:38:12.235Z,10.95
2019-06-20T11:40:43.995Z,15.63
2019-06-20T11:43:14.234Z,17.77
2019-06-20T11:45:47.219Z,14.63
2019-06-20T11:48:16.382Z,12.03
2019-06-20T11:50:46.737Z,15.35
2019-06-20T11:53:16.909Z,16.97
2019-06-20T11:55:47.244Z,19.05
2019-06-20T11:58:17.442Z,18.15
2019-06-20T12:01:02.551Z,22.90
2019-06-20T12:03:21.642Z,23.18
2019-06-20T12:05:52.084Z,18.70
2019-06-20T12:08:22.345Z,18.95
2019-06-20T12:10:52.685Z,16.12
2019-06-20T12:13:23.936Z,16.30
2019-06-20T12:15:54.292Z,20.27
2019-06-20T12:18:25.982Z,24.50
2019-06-20T12:20:57.869Z,24.15
2019-06-20T12:23:31.192Z,19.17
2019-06-20T12:26:01.365Z,20.43
2019-06-20T12:28:31.629Z,16.45
2019-06-20T12:31:01.956Z,14.23
2019-06-20T12:33:32.223Z,17.15
2019-06-20T12:36:02.548Z,15.48
2019-06-20T12:38:32.724Z,20.40
2019-06-20T12:41:03.057Z,22.27
2019-06-20T12:43:33.323Z,25.95
2019-06-20T12:46:03.641Z,24.52
2019-06-20T12:48:33.912Z,26.87
2019-06-20T12:51:04.271Z,22.52
2019-06-20T12:53:34.483Z,20.77
2019-06-20T12:56:05.792Z,17.42
2019-06-20T12:58:37.362Z,17.20
2019-06-20T13:01:07.983Z,21.40
2019-06-20T13:03:39.978Z,16.20
2019-06-20T13:06:10.218Z,18.97
2019-06-20T13:08:41.998Z,19.35
2019-06-20T13:11:12.412Z,19.07
2019-06-20T13:13:42.664Z,14.20
2019-06-20T13:16:12.906Z,15.05
2019-06-20T13:18:44.548Z,13.53
2019-06-20T13:21:14.930Z,18.10
2019-06-20T13:23:45.128Z,10.82
2019-06-20T13:26:15.436Z,9.70
2019-06-20T13:29:00.592Z,8.30
2019-06-20T13:31:17.617Z,15.67
2019-06-20T13:33:48.923Z,9.10
2019-06-20T13:36:19.217Z,7.53
2019-06-20T13:38:49.455Z,8.23
2019-06-20T13:41:19.692Z,8.08
2019-06-20T13:43:49.909Z,9.83
2019-06-20T13:46:20.201Z,8.20
2019-06-20T13:48:50.463Z,8.50
2019-06-20T13:51:20.796Z,13.35
2019-06-20T13:53:51.063Z,17.12
2019-06-20T13:56:21.385Z,9.58
2019-06-20T13:58:51.625Z,6.80
2019-06-20T14:01:21.953Z,8.68
2019-06-20T14:03:52.200Z,8.68
2019-06-20T14:06:22.543Z,11.20
2019-06-20T14:08:52.747Z,7.53
2019-06-20T14:11:24.004Z,5.35
2019-06-20T14:13:54.169Z,11.45
2019-06-20T14:16:24.448Z,12.00
2019-06-20T14:18:54.614Z,6.92
2019-06-20T14:21:24.985Z,9.75
2019-06-20T14:23:56.619Z,8.98
2019-06-20T14:26:27.070Z,10.23
2019-06-20T14:28:57.274Z,12.95
2019-06-20T14:31:27.543Z,8.95
2019-06-20T14:33:58.927Z,7.47
2019-06-20T14:36:29.131Z,11.25
2019-06-20T14:38:59.325Z,7.62
2019-06-20T14:41:29.597Z,6.97
2019-06-20T14:44:00.322Z,8.53
2019-06-20T14:46:30.617Z,8.50
2019-06-20T14:49:01.398Z,9.63
2019-06-20T14:51:31.683Z,10.20
2019-06-20T14:54:01.913Z,9.13
2019-06-20T14:56:32.235Z,6.47
2019-06-20T14:59:02.472Z,6.00
2019-06-20T15:01:32.800Z,7.50
2019-06-20T15:04:03.041Z,7.28
2019-06-20T15:06:33.296Z,5.50
2019-06-20T15:09:06.073Z,5.92
2019-06-20T15:11:37.052Z,6.53
2019-06-20T15:14:08.483Z,8.20
2019-06-20T15:16:38.812Z,3.72
2019-06-20T15:19:08.992Z,5.00
2019-06-20T15:21:39.292Z,10.48
2019-06-20T15:24:09.671Z,5.42
2019-06-20T15:26:39.845Z,7.42
2019-06-20T15:29:10.089Z,7.83
2019-06-20T15:31:43.621Z,7.87
2019-06-20T15:34:12.224Z,9.00
2019-06-20T15:36:42.527Z,8.03
2019-06-20T15:39:12.788Z,5.67
2019-06-20T15:41:44.316Z,6.75
2019-06-20T15:44:14.573Z,6.40
2019-06-20T15:46:50.078Z,7.33
2019-06-20T15:49:20.449Z,7.17
2019-06-20T15:51:50.777Z,5.70
2019-06-20T15:54:24.434Z,12.10
2019-06-20T15:56:52.926Z,8.57
2019-06-20T15:59:23.287Z,6.42
2019-06-20T16:01:53.520Z,7.70
2019-06-20T16:04:23.703Z,9.00
2019-06-20T16:06:54.057Z,7.62
2019-06-20T16:09:24.239Z,10.53
2019-06-20T16:11:54.567Z,13.75
2019-06-20T16:14:26.274Z,8.85
2019-06-20T16:16:56.605Z,8.43
2019-06-20T16:19:26.906Z,7.35
2019-06-20T16:21:57.168Z,9.95
2019-06-20T16:24:28.413Z,6.72
2019-06-20T16:26:58.701Z,15.55
2019-06-20T16:29:28.898Z,8.63
2019-06-20T16:31:59.153Z,7.12
2019-06-20T16:34:29.391Z,5.17
2019-06-20T16:37:09.715Z,5.90
2019-06-20T16:39:31.602Z,1.62
2019-06-20T16:42:01.844Z,4.05
2019-06-20T16:44:32.119Z,6.50
2019-06-20T16:47:02.460Z,5.40
2019-06-20T16:49:32.630Z,2.95
2019-06-20T16:52:02.900Z,3.60
2019-06-20T16:54:33.137Z,5.53
2019-06-20T16:57:03.405Z,6.58
2019-06-20T16:59:33.595Z,5.22
2019-06-20T17:02:03.901Z,3.05
2019-06-20T17:04:34.063Z,6.50
2019-06-20T17:07:04.417Z,3.87
2019-06-20T17:09:34.646Z,3.15
2019-06-20T17:12:04.967Z,6.45
2019-06-20T17:14:35.147Z,2.20
2019-06-20T17:17:05.488Z,5.08
2019-06-20T17:19:35.763Z,3.35
2019-06-20T17:22:06.072Z,4.47
2019-06-20T17:24:36.342Z,7.20
2019-06-20T17:27:06.683Z,6.55
2019-06-20T17:29:36.942Z,6.33
2019-06-20T17:32:07.264Z,4.42
2019-06-20T17:34:37.459Z,3.00
2019-06-20T17:37:07.692Z,9.50
2019-06-20T17:39:37.887Z,7.30
2019-06-20T17:42:08.190Z,6.58
2019-06-20T17:44:38.432Z,4.95
2019-06-20T17:47:09.552Z,8.23
2019-06-20T17:49:39.829Z,16.80
2019-06-20T17:52:11.051Z,21.87
2019-06-20T17:54:41.229Z,13.90
2019-06-20T17:57:11.496Z,9.55
2019-06-20T17:59:41.755Z,5.90
2019-06-20T18:02:12.109Z,6.85
2019-06-20T18:04:42.313Z,4.37
2019-06-20T18:07:14.144Z,5.70
2019-06-20T18:09:44.456Z,5.80
2019-06-20T18:12:16.292Z,3.63
2019-06-20T18:14:46.549Z,2.98
2019-06-20T18:17:16.872Z,4.00
2019-06-20T18:19:47.055Z,3.20
2019-06-20T18:22:17.381Z,3.80
2019-06-20T18:24:47.611Z,8.40
2019-06-20T18:27:17.936Z,7.10
2019-06-20T18:29:48.104Z,7.47
2019-06-20T18:32:18.337Z,5.90
2019-06-20T18:35:01.620Z,4.45
2019-06-20T18:37:30.998Z,11.00
2019-06-20T18:39:52.279Z,7.57
2019-06-20T18:42:22.591Z,8.55
2019-06-20T18:44:54.169Z,8.18
2019-06-20T18:47:24.420Z,6.85
2019-06-20T18:49:54.653Z,9.23
2019-06-20T18:52:24.965Z,9.75
2019-06-20T18:54:55.211Z,8.18
2019-06-20T18:57:25.533Z,7.87
2019-06-20T18:59:56.804Z,4.95
2019-06-20T19:02:27.111Z,7.35
2019-06-20T19:04:57.280Z,6.45
2019-06-20T19:07:27.592Z,5.75
2019-06-20T19:09:57.888Z,6.33
2019-06-20T19:12:28.256Z,7.25
2019-06-20T19:14:58.424Z,4.03
2019-06-20T19:17:28.724Z,6.50
2019-06-20T19:19:58.975Z,5.53
2019-06-20T19:22:29.299Z,4.17
2019-06-20T19:24:59.563Z,4.47
2019-06-20T19:27:44.973Z,5.00
2019-06-20T19:30:01.693Z,8.93
2019-06-20T19:32:31.997Z,15.03
2019-06-20T19:35:02.848Z,4.90
2019-06-20T19:37:33.338Z,3.37
2019-06-20T19:40:03.727Z,6.60
2019-06-20T19:42:33.938Z,6.62
2019-06-20T19:45:13.421Z,5.60
2019-06-20T19:47:43.744Z,7.75
2019-06-20T19:50:14.452Z,12.20
2019-06-20T19:52:44.727Z,11.15
2019-06-20T19:55:16.790Z,10.13
2019-06-20T19:57:47.132Z,7.20
2019-06-20T20:00:19.245Z,24.23
2019-06-20T20:02:49.678Z,18.65
2019-06-20T20:05:20.137Z,23.75
2019-06-20T20:07:50.528Z,10.23
2019-06-20T20:10:48.549Z,11.38
2019-06-20T20:13:19.264Z,12.05
2019-06-20T20:15:49.437Z,5.92
2019-06-20T20:18:19.763Z,8.23
2019-06-20T20:20:50.006Z,6.97
2019-06-20T20:23:20.349Z,10.80
2019-06-20T20:25:50.612Z,8.68
2019-06-20T20:28:20.920Z,9.23
2019-06-20T20:30:53.599Z,5.70
2019-06-20T20:33:23.088Z,8.08
2019-06-20T20:35:54.443Z,6.60
2019-06-20T20:38:24.763Z,5.42
2019-06-20T20:40:55.020Z,9.05
2019-06-20T20:43:25.280Z,3.27
2019-06-20T20:45:55.532Z,6.00
2019-06-20T20:48:25.765Z,4.37
2019-06-20T20:50:56.020Z,5.42
2019-06-20T20:53:26.335Z,4.35
2019-06-20T20:55:56.522Z,10.63
2019-06-20T20:58:26.841Z,7.55
2019-06-20T21:01:05.651Z,7.10
2019-06-20T21:03:35.910Z,8.20
2019-06-20T21:06:06.107Z,6.85
2019-06-20T21:08:36.424Z,9.53
2019-06-20T21:11:06.762Z,13.08
2019-06-20T21:13:37.093Z,4.00
2019-06-20T21:16:07.262Z,6.83
2019-06-20T21:18:37.588Z,7.20
2019-06-20T21:21:07.816Z,7.28
2019-06-20T21:23:38.098Z,4.60
2019-06-20T21:26:08.335Z,9.38
2019-06-20T21:28:39.644Z,3.17
2019-06-20T21:31:09.833Z,8.80
2019-06-20T21:33:40.057Z,5.12
2019-06-20T21:36:10.228Z,10.93
2019-06-20T21:38:40.545Z,6.03
2019-06-20T21:41:10.714Z,6.12
2019-06-20T21:43:40.967Z,10.43
2019-06-20T21:46:11.207Z,6.42
2019-06-20T21:48:41.531Z,8.43
2019-06-20T21:51:11.697Z,4.17
2019-06-20T21:53:41.972Z,6.35
2019-06-20T21:56:12.217Z,7.50
2019-06-20T21:58:42.469Z,5.22
2019-06-20T22:01:13.224Z,14.18
2019-06-20T22:03:43.667Z,7.83
2019-06-20T22:06:23.204Z,11.20
2019-06-20T22:08:45.749Z,5.80
2019-06-20T22:11:15.936Z,6.03
2019-06-20T22:13:49.097Z,8.03
2019-06-20T22:16:19.333Z,9.78
2019-06-20T22:18:49.655Z,9.25
2019-06-20T22:21:19.821Z,12.15
2019-06-20T22:23:50.121Z,9.33
2019-06-20T22:26:20.294Z,12.58
2019-06-20T22:28:50.537Z,11.38
2019-06-20T22:31:20.790Z,9.60
2019-06-20T22:33:51.149Z,11.00
2019-06-20T22:36:21.289Z,6.15
2019-06-20T22:38:51.608Z,7.10
2019-06-20T22:41:21.818Z,7.92
2019-06-20T22:43:52.153Z,12.53
2019-06-20T22:46:22.341Z,7.58
2019-06-20T22:48:52.591Z,17.70
2019-06-20T22:51:22.841Z,9.48
2019-06-20T22:53:53.199Z,12.98
2019-06-20T22:56:23.444Z,9.23
2019-06-20T22:58:53.692Z,11.63
2019-06-20T23:01:23.884Z,14.65
2019-06-20T23:03:55.113Z,21.45
2019-06-20T23:06:25.297Z,19.73
2019-06-20T23:08:55.543Z,6.97
2019-06-20T23:11:25.782Z,9.75
2019-06-20T23:13:56.013Z,6.83
2019-06-20T23:16:26.275Z,11.05
2019-06-20T23:18:56.513Z,12.60
2019-06-20T23:21:26.804Z,9.25
2019-06-20T23:23:57.113Z,16.62
2019-06-20T23:26:27.380Z,10.63
2019-06-20T23:29:15.481Z,9.58
2019-06-20T23:31:45.732Z,16.15
2019-06-20T23:34:16.068Z,17.32
2019-06-20T23:36:46.354Z,10.75
2019-06-20T23:39:16.662Z,12.35
2019-06-20T23:41:46.956Z,12.10
2019-06-20T23:44:17.148Z,14.95
2019-06-20T23:46:47.343Z,13.62
2019-06-20T23:49:17.505Z,9.08
2019-06-20T23:51:52.188Z,12.47
2019-06-20T23:54:22.528Z,16.52
2019-06-20T23:56:52.727Z,19.00
2019-06-20T23:59:22.977Z,15.58
